Time;durP1;ratioP1;P1;durP2;ratioP2;P2;SDS_P1;SDS_P2;PMS_P1;PMS_P2;Temp;Humidity;BMP_temperature;BMP_pressure;BME280_temperature;BME280_humidity;BME280_pressure;Samples;Min_cycle;Max_cycle;Signal;HPM_P1;HPM_P2
2023/07/04 00:00:12;;;;;;;4.88;4.05;;;;;;;18.79;69.10;94781.34;5033069;28;20029;-78
2023/07/04 00:02:38;;;;;;;4.35;3.72;;;;;;;18.68;69.48;94787.81;5033116;28;20127;-78
2023/07/04 00:05:04;;;;;;;4.63;3.90;;;;;;;18.65;69.50;94781.09;5033340;28;20063;-77
2023/07/04 00:07:31;;;;;;;4.70;3.65;;;;;;;18.63;69.61;94787.53;5051812;28;20029;-78
2023/07/04 00:09:59;;;;;;;6.20;4.13;;;;;;;18.57;69.50;94794.31;5050661;28;20514;-79
2023/07/04 00:12:24;;;;;;;5.00;3.80;;;;;;;18.60;69.55;94804.47;5050584;28;20427;-78
2023/07/04 00:14:50;;;;;;;7.50;4.05;;;;;;;18.41;69.50;94766.31;5050917;28;20040;-78
2023/07/04 00:17:15;;;;;;;5.13;4.10;;;;;;;18.52;70.06;94786.13;5049343;28;20415;-78
2023/07/04 00:19:41;;;;;;;4.82;3.95;;;;;;;18.44;69.67;94788.81;5034136;28;20491;-78
2023/07/04 00:22:09;;;;;;;4.97;4.43;;;;;;;18.48;69.87;94790.94;5033690;28;20475;-78
2023/07/04 00:24:35;;;;;;;4.68;3.80;;;;;;;18.45;69.66;94772.88;5034459;28;20495;-78
2023/07/04 00:27:00;;;;;;;4.75;4.13;;;;;;;18.41;69.79;94768.94;5050446;28;20040;-78
2023/07/04 00:29:28;;;;;;;5.40;4.32;;;;;;;18.63;69.50;94796.25;5034194;28;20469;-78
2023/07/04 00:31:53;;;;;;;7.80;3.80;;;;;;;18.55;70.17;94796.28;5033871;28;20021;-78
2023/07/04 00:34:20;;;;;;;5.13;4.07;;;;;;;18.58;70.08;94800.38;5049463;28;20562;-78
2023/07/04 00:36:46;;;;;;;4.93;4.18;;;;;;;18.58;69.89;94801.19;5034000;28;20479;-78
2023/07/04 00:39:12;;;;;;;4.53;3.97;;;;;;;18.51;69.98;94779.25;5033751;28;20076;-78
2023/07/04 00:41:37;;;;;;;5.80;4.18;;;;;;;18.40;70.25;94771.78;5051247;28;20048;-78
2023/07/04 00:44:19;;;;;;;6.18;4.15;;;;;;;18.65;70.65;94799.50;5033625;28;20051;-78
2023/07/04 00:47:10;;;;;;;4.45;4.03;;;;;;;18.64;69.95;94791.81;5021230;28;20144;-78
2023/07/04 00:49:46;;;;;;;5.97;4.53;;;;;;;18.47;70.39;94797.19;5035375;28;20033;-78
2023/07/04 00:52:25;;;;;;;4.55;4.10;;;;;;;18.54;70.33;94797.31;5050170;28;20146;-78
2023/07/04 00:54:54;;;;;;;5.10;3.72;;;;;;;18.50;70.79;94786.31;5035443;28;20040;-78
2023/07/04 00:57:25;;;;;;;6.88;4.28;;;;;;;18.43;70.61;94779.31;5033693;28;20029;-78
2023/07/04 00:59:57;;;;;;;4.47;3.88;;;;;;;18.42;70.54;94775.06;5033682;28;20029;-78
2023/07/04 01:02:24;;;;;;;5.18;3.78;;;;;;;18.45;70.61;94788.66;5034108;28;20033;-78
2023/07/04 01:04:50;;;;;;;5.43;3.83;;;;;;;18.39;70.81;94770.16;5033730;28;20471;-78
2023/07/04 01:07:27;;;;;;;7.30;4.55;;;;;;;17.95;72.83;94795.22;5050035;28;20035;-78
2023/07/04 01:09:55;;;;;;;7.22;4.70;;;;;;;18.04;72.12;94785.47;5050114;28;20036;-78
2023/07/04 01:12:21;;;;;;;5.22;4.20;;;;;;;18.16;72.10;94802.47;5033251;28;20098;-78
2023/07/04 01:14:47;;;;;;;5.25;4.30;;;;;;;18.10;72.04;94800.56;5049961;28;20025;-77
2023/07/04 01:17:13;;;;;;;6.55;4.53;;;;;;;17.80;73.50;94792.53;5049870;28;20033;-78
2023/07/04 01:19:39;;;;;;;10.20;5.65;;;;;;;17.86;73.34;94798.91;5017022;28;20110;-78
2023/07/04 01:22:27;;;;;;;6.03;4.63;;;;;;;17.88;73.24;94803.97;5049657;28;20047;-78
2023/07/04 01:24:55;;;;;;;6.15;4.40;;;;;;;17.92;73.34;94807.91;5051158;28;20422;-78
2023/07/04 01:27:20;;;;;;;5.10;4.28;;;;;;;17.87;73.21;94808.41;5033303;28;20445;-78
2023/07/04 01:29:46;;;;;;;6.60;4.38;;;;;;;17.82;73.36;94806.28;5033456;28;20029;-78
2023/07/04 01:32:11;;;;;;;5.40;4.32;;;;;;;17.68;73.32;94788.59;5049768;28;20028;-77
2023/07/04 01:34:36;;;;;;;5.18;4.40;;;;;;;17.77;73.52;94803.31;5049664;28;20021;-78
2023/07/04 01:37:02;;;;;;;8.10;4.45;;;;;;;17.73;73.61;94799.41;5050851;28;20033;-78
2023/07/04 01:39:28;;;;;;;6.40;4.30;;;;;;;17.58;73.50;94788.00;5049990;28;20099;-78
2023/07/04 01:41:53;;;;;;;6.05;4.68;;;;;;;17.55;73.65;94788.31;5033153;28;20056;-78
2023/07/04 01:44:19;;;;;;;5.47;4.40;;;;;;;17.68;73.47;94793.84;5033010;28;20037;-77
2023/07/04 01:46:44;;;;;;;8.20;4.30;;;;;;;17.69;73.20;94795.50;5053036;28;20537;-78
2023/07/04 01:49:10;;;;;;;7.28;4.50;;;;;;;17.68;73.23;94788.59;5020444;28;20041;-78
2023/07/04 01:51:39;;;;;;;4.50;3.88;;;;;;;17.79;73.08;94790.06;5036932;28;20036;-78
2023/07/04 01:54:05;;;;;;;4.85;4.13;;;;;;;17.71;73.09;94788.25;5053467;28;20037;-78
2023/07/04 01:56:31;;;;;;;4.65;3.80;;;;;;;17.63;73.20;94777.78;5036841;28;20028;-78
2023/07/04 01:58:57;;;;;;;4.60;4.05;;;;;;;17.73;72.95;94796.78;5020343;28;20110;-78
2023/07/04 02:01:22;;;;;;;4.18;3.65;;;;;;;17.78;73.41;94789.25;5020079;28;20070;-78
2023/07/04 02:03:48;;;;;;;5.53;4.07;;;;;;;17.71;73.37;94793.50;5052985;28;20510;-78
2023/07/04 02:06:16;;;;;;;5.13;4.38;;;;;;;17.64;73.35;94779.44;5054437;28;20037;-78
2023/07/04 02:08:42;;;;;;;6.72;4.40;;;;;;;17.63;73.57;94790.91;5019887;28;20029;-78
2023/07/04 02:11:08;;;;;;;5.30;4.15;;;;;;;17.51;73.66;94779.16;5036402;28;20029;-78
2023/07/04 02:13:33;;;;;;;5.45;4.70;;;;;;;17.67;73.60;94794.84;5052815;28;20108;-78
2023/07/04 02:15:59;;;;;;;5.68;4.43;;;;;;;17.52;73.53;94772.91;5053137;28;20044;-78
2023/07/04 02:18:25;;;;;;;5.75;3.33;;;;;;;17.74;72.94;94790.53;5052972;28;20032;-78
2023/07/04 02:20:50;;;;;;;5.93;4.43;;;;;;;17.78;72.73;94789.25;5036657;28;20033;-78
2023/07/04 02:23:16;;;;;;;6.78;4.40;;;;;;;17.67;73.04;94784.34;5052520;28;20072;-78
2023/07/04 02:25:41;;;;;;;5.05;3.60;;;;;;;17.67;73.15;94786.97;5019929;28;20033;-77
2023/07/04 02:28:07;;;;;;;4.35;3.70;;;;;;;17.41;73.98;94788.06;5036397;28;20037;-77
2023/07/04 02:30:33;;;;;;;4.80;4.07;;;;;;;17.50;73.88;94801.16;5052736;28;20491;-77
2023/07/04 02:32:58;;;;;;;5.85;4.03;;;;;;;17.50;73.60;94780.97;5053761;28;20040;-77
2023/07/04 02:35:23;;;;;;;6.70;4.90;;;;;;;17.47;73.61;94768.19;5052943;28;20086;-78
2023/07/04 02:37:49;;;;;;;9.02;5.22;;;;;;;17.52;73.99;94778.97;5053965;28;20049;-77
2023/07/04 02:40:14;;;;;;;6.35;4.88;;;;;;;17.27;75.62;94793.97;5036061;28;20479;-77
2023/07/04 02:42:40;;;;;;;6.93;4.93;;;;;;;17.11;76.42;94796.66;5035879;28;20052;-77
2023/07/04 02:45:06;;;;;;;7.00;4.13;;;;;;;17.29;74.99;94801.69;5052605;28;20044;-77
2023/07/04 02:47:32;;;;;;;6.43;4.43;;;;;;;17.22;75.85;94804.19;5019513;28;20033;-77
2023/07/04 02:49:58;;;;;;;7.53;4.63;;;;;;;17.32;75.38;94799.56;5028019;28;20514;-77
2023/07/04 02:52:25;;;;;;;5.88;4.50;;;;;;;17.27;75.33;94791.34;5072080;28;20028;-78
2023/07/04 02:54:51;;;;;;;4.63;4.10;;;;;;;17.14;75.21;94773.53;5072517;28;20047;-78
2023/07/04 02:57:16;;;;;;;4.85;4.32;;;;;;;17.21;75.50;94792.03;5055054;28;20138;-78
2023/07/04 02:59:42;;;;;;;5.93;4.22;;;;;;;17.30;74.84;94793.66;5054800;28;20097;-78
2023/07/04 03:02:07;;;;;;;4.38;3.85;;;;;;;17.29;75.23;94794.63;5071549;28;20085;-77
2023/07/04 03:04:33;;;;;;;6.15;4.43;;;;;;;17.19;74.64;94768.59;5071984;28;20055;-77
2023/07/04 03:06:58;;;;;;;5.97;4.18;;;;;;;17.26;75.03;94797.59;5038008;28;20537;-78
2023/07/04 03:09:24;;;;;;;5.78;4.78;;;;;;;17.20;74.80;94775.47;5072086;28;20037;-77
2023/07/04 03:11:49;;;;;;;5.65;4.10;;;;;;;17.26;74.82;94784.47;5054990;28;20078;-77
2023/07/04 03:14:15;;;;;;;6.70;4.50;;;;;;;17.00;75.67;94762.91;5055380;28;20035;-78
2023/07/04 03:16:40;;;;;;;4.97;4.28;;;;;;;17.24;75.25;94778.56;5073142;28;20029;-77
2023/07/04 03:19:05;;;;;;;5.75;4.32;;;;;;;17.36;74.52;94774.63;5073234;28;20032;-78
2023/07/04 03:21:31;;;;;;;4.82;4.32;;;;;;;17.28;75.29;94792.19;5071798;28;20138;-78
2023/07/04 03:23:56;;;;;;;5.68;4.40;;;;;;;17.22;75.28;94783.19;5055152;28;20024;-78
2023/07/04 03:26:22;;;;;;;5.35;4.32;;;;;;;17.38;74.62;94792.81;5055051;28;20474;-78
2023/07/04 03:28:47;;;;;;;6.85;4.72;;;;;;;17.28;74.94;94787.75;5071607;28;20028;-79
2023/07/04 03:31:12;;;;;;;5.00;4.40;;;;;;;17.26;74.95;94773.16;5055007;28;20036;-78
2023/07/04 03:33:38;;;;;;;6.18;4.38;;;;;;;17.45;74.67;94798.22;5071476;28;20024;-78
2023/07/04 03:36:05;;;;;;;6.68;4.32;;;;;;;17.52;74.28;94786.84;5054782;28;20459;-78
2023/07/04 03:38:31;;;;;;;5.53;4.30;;;;;;;17.51;74.31;94790.47;5071445;28;20052;-78
2023/07/04 03:40:58;;;;;;;6.20;4.45;;;;;;;17.63;74.32;94797.00;5054748;28;20111;-78
2023/07/04 03:43:24;;;;;;;5.90;4.72;;;;;;;17.68;74.39;94796.47;5054900;28;20070;-78
2023/07/04 03:45:49;;;;;;;5.55;4.63;;;;;;;17.60;74.94;94802.56;5071007;28;20429;-78
2023/07/04 03:48:14;;;;;;;5.35;4.75;;;;;;;17.22;74.72;94766.59;5071219;28;20494;-79
2023/07/04 03:50:40;;;;;;;6.30;4.95;;;;;;;17.42;75.27;94800.19;5071255;28;20029;-78
2023/07/04 03:53:06;;;;;;;7.88;5.05;;;;;;;17.59;75.20;94800.13;5071455;28;20024;-78
2023/07/04 03:55:32;;;;;;;6.28;4.90;;;;;;;17.55;74.90;94809.31;5071263;28;20415;-78
2023/07/04 03:57:57;;;;;;;5.70;5.10;;;;;;;17.75;74.59;94800.06;5054587;28;20032;-78
2023/07/04 04:00:23;;;;;;;5.80;4.60;;;;;;;17.85;74.38;94811.19;5070725;28;20491;-78
2023/07/04 04:02:48;;;;;;;6.95;4.70;;;;;;;17.86;74.52;94802.34;5072379;28;20025;-78
2023/07/04 04:05:13;;;;;;;6.78;4.68;;;;;;;17.95;74.01;94783.91;5054220;28;20035;-79
2023/07/04 04:07:39;;;;;;;6.55;4.75;;;;;;;18.09;73.92;94805.00;5071649;28;20040;-79
2023/07/04 04:10:05;;;;;;;6.15;5.55;;;;;;;18.23;73.37;94810.50;5052052;28;20036;-79
2023/07/04 04:12:30;;;;;;;7.18;5.85;;;;;;;18.76;71.77;94795.69;5069803;28;20357;-79
2023/07/04 04:14:56;;;;;;;5.97;4.90;;;;;;;19.95;68.53;94806.31;5020592;28;20025;-79
2023/07/04 04:17:21;;;;;;;7.13;4.60;;;;;;;20.96;63.96;94801.84;5038613;28;20016;-79
2023/07/04 04:19:47;;;;;;;6.60;4.90;;;;;;;21.71;62.10;94805.59;5045311;28;20040;-79
2023/07/04 04:22:12;;;;;;;5.90;4.78;;;;;;;22.35;59.34;94808.91;5045573;28;20388;-79
2023/07/04 04:24:38;;;;;;;5.97;4.60;;;;;;;23.14;57.72;94803.72;5046859;28;20110;-79
2023/07/04 04:27:08;;;;;;;5.72;4.40;;;;;;;23.79;55.49;94805.66;5059651;28;20036;-79
2023/07/04 04:29:34;;;;;;;7.50;5.00;;;;;;;24.33;53.25;94801.78;5031239;28;20452;-79
2023/07/04 04:32:00;;;;;;;6.05;4.70;;;;;;;25.18;50.84;94806.75;5045218;28;20113;-79
2023/07/04 04:34:25;;;;;;;6.68;4.70;;;;;;;25.51;49.46;94810.94;5042912;28;20479;-79
2023/07/04 04:36:51;;;;;;;5.72;4.40;;;;;;;26.01;48.82;94819.63;5034867;28;20033;-79
2023/07/04 04:39:16;;;;;;;6.65;4.35;;;;;;;26.08;48.47;94801.75;5042824;28;20052;-79
2023/07/04 04:41:42;;;;;;;9.85;4.75;;;;;;;26.12;47.93;94827.91;5054868;28;20025;-79
2023/07/04 04:44:08;;;;;;;7.60;5.13;;;;;;;26.03;48.00;94816.75;5056020;28;20040;-79
2023/07/04 04:46:34;;;;;;;8.23;4.68;;;;;;;25.59;48.54;94821.31;5040211;28;20029;-79
2023/07/04 04:49:02;;;;;;;6.93;4.72;;;;;;;25.13;49.84;94827.81;5053914;28;20039;-79
2023/07/04 04:51:28;;;;;;;5.90;4.88;;;;;;;24.82;50.61;94824.16;5045697;28;20063;-79
2023/07/04 04:53:53;;;;;;;8.80;5.13;;;;;;;24.43;52.26;94831.38;5058042;28;20032;-79
2023/07/04 04:56:19;;;;;;;7.70;5.60;;;;;;;24.21;52.43;94830.81;5059279;28;20029;-79
2023/07/04 04:58:45;;;;;;;6.63;5.03;;;;;;;23.98;52.25;94818.03;5066531;28;20482;-79
2023/07/04 05:01:15;;;;;;;6.55;5.05;;;;;;;23.91;53.32;94830.53;5052049;28;20045;-78
2023/07/04 05:03:44;;;;;;;8.32;5.25;;;;;;;23.80;53.74;94833.81;5032766;28;20033;-79
2023/07/04 05:06:09;;;;;;;8.90;5.40;;;;;;;24.15;53.37;94834.28;5067809;28;20039;-79
2023/07/04 05:08:35;;;;;;;7.75;5.10;;;;;;;23.98;53.03;94831.28;5051442;28;20021;-78
2023/07/04 05:11:04;;;;;;;10.40;5.55;;;;;;;23.90;53.00;94817.47;5068224;28;20090;-78
2023/07/04 05:13:31;;;;;;;7.50;5.45;;;;;;;23.73;53.91;94852.38;5066740;28;20016;-78
2023/07/04 05:16:04;;;;;;;8.43;5.95;;;;;;;23.92;53.44;94847.25;5068723;28;20115;-81
2023/07/04 05:18:30;;;;;;;7.60;5.05;;;;;;;23.62;54.24;94831.78;5052534;28;20047;-78
2023/07/04 05:21:05;;;;;;;11.15;5.53;;;;;;;23.82;54.17;94842.38;5055363;28;20036;-78
2023/07/04 05:23:33;;;;;;;6.30;5.20;;;;;;;23.63;54.87;94834.25;5072013;28;20035;-78
2023/07/04 05:26:04;;;;;;;6.35;5.22;;;;;;;23.46;54.82;94842.81;5053365;28;20529;-78
2023/07/04 05:28:29;;;;;;;7.63;5.38;;;;;;;23.64;54.20;94819.94;5069863;28;20024;-78
2023/07/04 05:31:03;;;;;;;8.57;4.88;;;;;;;23.31;54.93;94835.91;5071460;28;20493;-78
2023/07/04 05:33:28;;;;;;;7.93;5.75;;;;;;;23.24;55.83;94834.28;5071232;28;20090;-78
2023/07/04 05:36:06;;;;;;;9.50;5.97;;;;;;;23.23;56.35;94844.06;5055187;28;20040;-78
2023/07/04 05:38:31;;;;;;;8.82;5.97;;;;;;;23.22;56.31;94838.97;5071937;28;20094;-78
2023/07/04 05:40:57;;;;;;;6.45;4.90;;;;;;;23.28;56.21;94833.66;5072852;28;20040;-78
2023/07/04 05:43:22;;;;;;;6.68;5.53;;;;;;;23.41;55.88;94833.66;5074286;28;20055;-78
2023/07/04 05:45:48;;;;;;;7.47;5.20;;;;;;;23.26;56.05;94824.28;5073165;28;20045;-78
2023/07/04 05:48:14;;;;;;;6.80;5.00;;;;;;;23.55;55.28;94815.91;5056337;28;20082;-78
2023/07/04 05:50:52;;;;;;;6.63;4.82;;;;;;;23.63;54.82;94831.59;5073106;28;20048;-78
2023/07/04 05:53:19;;;;;;;5.93;4.93;;;;;;;23.96;53.69;94819.25;5074058;28;20430;-78
2023/07/04 05:55:45;;;;;;;7.10;4.88;;;;;;;24.24;54.43;94821.63;5056655;28;20040;-78
2023/07/04 05:58:10;;;;;;;10.98;4.75;;;;;;;24.14;53.28;94815.94;5074139;28;20464;-78
2023/07/04 06:00:36;;;;;;;5.03;4.40;;;;;;;24.14;53.34;94827.38;5056155;28;20033;-78
2023/07/04 06:03:03;;;;;;;6.72;4.85;;;;;;;24.35;52.51;94823.63;5055988;28;20722;-78
2023/07/04 06:05:29;;;;;;;7.30;4.90;;;;;;;24.49;52.56;94819.06;5056393;28;20036;-78
2023/07/04 06:07:55;;;;;;;10.20;5.30;;;;;;;24.39;53.44;94819.50;5056114;28;20017;-78
2023/07/04 06:10:21;;;;;;;5.63;4.85;;;;;;;24.38;53.42;94814.41;5055964;28;20029;-78
2023/07/04 06:12:46;;;;;;;6.43;4.97;;;;;;;24.58;53.54;94809.00;5072577;28;20033;-78
2023/07/04 06:15:12;;;;;;;7.03;4.82;;;;;;;24.51;53.73;94822.31;5055793;28;20037;-77
2023/07/04 06:17:37;;;;;;;7.55;5.13;;;;;;;24.58;52.92;94817.78;5055622;28;20034;-78
2023/07/04 06:20:03;;;;;;;4.97;4.43;;;;;;;25.01;52.87;94818.91;5072418;28;20037;-78
2023/07/04 06:22:28;;;;;;;8.50;4.63;;;;;;;24.93;52.67;94802.22;5072464;28;20074;-78
2023/07/04 06:24:54;;;;;;;6.80;4.43;;;;;;;25.02;52.54;94812.56;5073861;28;20483;-78
2023/07/04 06:27:20;;;;;;;10.70;4.82;;;;;;;24.06;53.89;94806.38;5055473;28;20482;-76
2023/07/04 06:29:48;;;;;;;6.88;4.70;;;;;;;24.37;54.20;94810.91;5038764;28;20036;-77
2023/07/04 06:32:14;;;;;;;5.72;5.03;;;;;;;24.20;54.69;94807.94;5072074;28;20024;-78
2023/07/04 06:34:39;;;;;;;7.88;5.38;;;;;;;24.29;54.35;94803.19;5073512;28;20039;-77
2023/07/04 06:37:05;;;;;;;5.55;4.95;;;;;;;24.68;54.22;94807.53;5072904;28;20020;-78
2023/07/04 06:39:30;;;;;;;7.10;5.53;;;;;;;24.46;54.57;94815.00;5071924;28;20124;-78
2023/07/04 06:41:56;;;;;;;8.27;5.35;;;;;;;24.53;54.14;94813.09;5055283;28;20028;-78
2023/07/04 06:44:21;;;;;;;8.88;5.00;;;;;;;24.67;53.73;94805.06;5071832;28;20051;-78
2023/07/04 06:46:47;;;;;;;9.38;4.97;;;;;;;24.54;54.26;94792.69;5038464;28;20033;-78
2023/07/04 06:49:12;;;;;;;6.28;5.20;;;;;;;24.63;53.95;94806.53;5071819;28;20036;-78
2023/07/04 06:51:38;;;;;;;7.80;4.53;;;;;;;24.65;54.20;94810.56;5055113;28;20120;-78
2023/07/04 06:54:03;;;;;;;8.52;4.43;;;;;;;24.83;54.21;94814.38;5071767;28;20024;-78
2023/07/04 06:56:30;;;;;;;6.45;4.78;;;;;;;25.02;53.23;94816.06;5038262;28;20036;-78
2023/07/04 06:58:56;;;;;;;6.85;4.68;;;;;;;25.50;51.83;94810.13;5055192;28;20047;-78
2023/07/04 07:01:27;;;;;;;6.70;4.13;;;;;;;25.26;51.55;94779.06;5055243;28;20497;-78
2023/07/04 07:03:53;;;;;;;9.07;4.75;;;;;;;25.32;52.07;94808.25;5071564;28;20025;-78
2023/07/04 07:06:19;;;;;;;5.25;4.10;;;;;;;25.24;52.42;94813.88;5072629;28;20044;-78
2023/07/04 07:08:44;;;;;;;6.32;4.22;;;;;;;25.55;50.47;94809.50;5071475;28;20025;-78
2023/07/04 07:11:11;;;;;;;7.43;4.40;;;;;;;25.34;50.52;94805.38;5054750;28;20027;-78
2023/07/04 07:13:37;;;;;;;7.35;4.28;;;;;;;25.26;50.60;94805.66;5038123;28;20036;-78
2023/07/04 07:16:10;;;;;;;4.70;3.88;;;;;;;25.41;50.10;94812.28;5054920;28;20040;-78
2023/07/04 07:18:36;;;;;;;7.45;4.03;;;;;;;25.31;48.69;94816.47;5071219;28;20078;-78
2023/07/04 07:21:02;;;;;;;8.23;4.10;;;;;;;25.49;50.18;94805.03;5054315;28;20028;-78
2023/07/04 07:23:28;;;;;;;6.95;3.88;;;;;;;25.53;49.68;94798.25;5054575;28;20031;-78
2023/07/04 07:25:58;;;;;;;4.65;4.13;;;;;;;25.64;49.89;94811.63;5054716;28;20036;-78
2023/07/04 07:28:27;;;;;;;4.88;3.60;;;;;;;25.58;49.20;94815.19;5071116;28;20025;-78
2023/07/04 07:31:03;;;;;;;8.05;3.80;;;;;;;25.85;48.35;94813.09;5038043;28;20032;-78
2023/07/04 07:33:30;;;;;;;6.80;3.35;;;;;;;25.78;47.62;94803.50;5070991;28;20059;-78
2023/07/04 07:35:56;;;;;;;4.38;3.80;;;;;;;26.16;47.26;94813.94;5054653;28;20366;-78
2023/07/04 19:41:34;;;;;;;10.18;8.55;;;;;;;20.78;75.78;94741.56;5008286;28;20073;-77
2023/07/04 19:43:59;;;;;;;11.40;8.65;;;;;;;20.69;75.40;94727.69;4968683;28;20520;-77
2023/07/04 19:46:25;;;;;;;9.55;8.52;;;;;;;20.77;75.00;94739.94;4972769;28;20097;-77
2023/07/04 19:48:50;;;;;;;10.45;8.45;;;;;;;20.77;75.17;94728.59;4987960;28;20041;-78
2023/07/04 19:51:19;;;;;;;9.00;8.10;;;;;;;20.83;74.88;94733.09;4987831;28;20511;-77
2023/07/04 19:53:44;;;;;;;9.65;7.78;;;;;;;20.73;74.76;94738.72;4972095;28;20443;-77
2023/07/04 19:56:18;;;;;;;9.38;8.35;;;;;;;20.63;74.81;94735.56;4987932;28;20034;-78
2023/07/04 19:58:44;;;;;;;10.15;8.23;;;;;;;20.59;74.98;94737.78;4955164;28;20125;-78
2023/07/04 20:01:11;;;;;;;9.13;8.15;;;;;;;20.59;74.85;94743.06;4987772;28;20034;-78
2023/07/04 20:03:37;;;;;;;10.05;8.50;;;;;;;20.60;74.77;94741.25;4955433;28;20121;-78
2023/07/04 20:06:03;;;;;;;9.45;8.45;;;;;;;20.76;74.99;94738.31;4972184;28;20117;-78
2023/07/04 20:08:28;;;;;;;9.02;8.13;;;;;;;20.78;76.07;94741.56;4986718;28;20034;-77
2023/07/04 20:10:55;;;;;;;9.18;7.95;;;;;;;20.77;75.23;94736.50;4987453;28;20493;-78
2023/07/04 20:13:21;;;;;;;8.90;7.97;;;;;;;20.63;73.44;94732.94;4955045;28;20081;-78
2023/07/04 20:15:46;;;;;;;8.73;7.82;;;;;;;20.74;73.23;94730.59;4971436;28;20454;-77
2023/07/04 20:18:11;;;;;;;8.88;7.97;;;;;;;20.88;73.89;94743.88;4988817;28;20065;-77
2023/07/04 20:20:37;;;;;;;9.27;7.70;;;;;;;20.82;73.68;94732.28;4971492;28;20452;-78
2023/07/04 20:23:04;;;;;;;8.10;7.28;;;;;;;20.84;74.34;94737.34;4987641;28;20046;-78
2023/07/04 20:25:32;;;;;;;9.27;7.88;;;;;;;20.79;72.85;94729.22;4971300;28;20095;-77
2023/07/04 20:27:57;;;;;;;10.15;8.05;;;;;;;20.59;72.87;94711.41;4987628;28;20089;-78
2023/07/04 20:30:24;;;;;;;9.27;8.38;;;;;;;20.72;72.47;94732.59;4966206;28;20039;-78
2023/07/04 20:32:51;;;;;;;9.23;8.00;;;;;;;20.69;73.60;94730.34;4969853;28;20050;-78
2023/07/04 20:35:16;;;;;;;10.00;8.07;;;;;;;20.71;73.26;94725.69;4970914;28;20081;-78
2023/07/04 20:37:42;;;;;;;9.80;8.70;;;;;;;20.68;73.29;94720.00;4970244;28;20050;-78
2023/07/04 20:40:08;;;;;;;9.23;8.23;;;;;;;20.74;72.73;94721.84;4985357;28;20022;-76
2023/07/04 20:42:34;;;;;;;8.85;7.93;;;;;;;20.58;72.53;94708.94;4969689;28;20065;-77
2023/07/04 20:45:00;;;;;;;10.52;8.10;;;;;;;20.55;72.83;94709.31;4970516;28;20483;-76
2023/07/04 20:47:25;;;;;;;11.07;8.27;;;;;;;20.62;72.61;94713.66;4985810;28;20034;-76
2023/07/04 20:49:51;;;;;;;8.70;7.80;;;;;;;20.62;71.87;94716.28;4969809;28;20031;-76
2023/07/04 20:52:17;;;;;;;10.30;8.20;;;;;;;20.55;71.98;94719.88;4966573;28;20026;-76
2023/07/04 20:54:43;;;;;;;9.18;8.05;;;;;;;20.53;71.93;94720.91;4970205;28;20045;-76
2023/07/04 20:57:09;;;;;;;8.77;7.82;;;;;;;20.35;72.27;94709.94;4970361;28;20034;-76
2023/07/04 20:59:35;;;;;;;10.55;8.93;;;;;;;20.43;71.83;94712.44;4985067;28;20027;-76
2023/07/04 21:02:04;;;;;;;8.68;7.88;;;;;;;20.47;70.89;94708.41;4984648;28;20096;-75
2023/07/04 21:04:30;;;;;;;9.30;7.97;;;;;;;20.56;70.38;94721.50;4952084;28;20031;-76
2023/07/04 21:06:56;;;;;;;8.70;7.68;;;;;;;20.41;70.92;94711.00;4986465;28;20523;-76
2023/07/04 21:09:25;;;;;;;10.05;7.60;;;;;;;20.48;71.38;94696.88;4986086;28;20030;-76
2023/07/04 21:11:52;;;;;;;8.98;7.80;;;;;;;20.47;70.18;94703.13;4987074;28;20034;-76
2023/07/04 21:14:17;;;;;;;10.35;8.30;;;;;;;20.54;70.15;94703.25;4953589;28;20038;-75
2023/07/04 21:16:43;;;;;;;9.85;8.23;;;;;;;20.46;70.47;94706.78;4970747;28;21215;-75
2023/07/04 21:19:08;;;;;;;8.38;7.50;;;;;;;20.40;71.07;94704.09;4969967;28;20113;-75
2023/07/04 21:21:35;;;;;;;8.93;7.70;;;;;;;20.46;72.10;94717.34;4949519;28;20034;-75
2023/07/04 21:24:03;;;;;;;9.18;7.72;;;;;;;20.28;71.38;94696.72;4969944;28;20133;-75
2023/07/04 21:26:29;;;;;;;10.02;8.32;;;;;;;20.39;70.97;94719.09;4985649;28;20030;-75
2023/07/04 21:28:55;;;;;;;9.18;8.18;;;;;;;20.33;70.86;94714.59;4964482;28;20260;-75
2023/07/04 21:31:20;;;;;;;9.35;8.35;;;;;;;20.39;70.87;94720.91;4967710;28;20207;-75
2023/07/04 21:33:46;;;;;;;9.40;8.35;;;;;;;20.37;70.82;94721.13;4985620;28;20037;-75
2023/07/04 21:36:12;;;;;;;10.13;8.10;;;;;;;20.34;70.67;94723.31;4988082;28;20092;-75
2023/07/04 21:38:38;;;;;;;9.00;8.10;;;;;;;20.36;70.36;94727.38;4968750;28;20034;-75
2023/07/04 21:41:03;;;;;;;9.82;8.10;;;;;;;20.34;70.12;94726.78;4963201;28;20023;-75
2023/07/04 21:43:30;;;;;;;9.80;8.30;;;;;;;20.35;70.77;94722.31;4967909;28;20570;-75
2023/07/04 21:46:03;;;;;;;9.38;8.18;;;;;;;20.15;74.09;94730.06;4987993;28;20417;-75
2023/07/04 21:48:28;;;;;;;10.75;7.93;;;;;;;20.17;71.50;94725.38;4987683;28;20038;-75
2023/07/04 21:50:55;;;;;;;9.77;8.77;;;;;;;20.17;71.31;94728.03;4987632;28;20033;-75
2023/07/04 21:53:20;;;;;;;12.27;8.18;;;;;;;20.03;72.90;94738.47;4988508;28;20041;-75
2023/07/04 21:55:46;;;;;;;9.60;8.60;;;;;;;19.98;72.63;94732.13;4973334;28;20031;-76
2023/07/04 21:58:11;;;;;;;10.05;8.30;;;;;;;20.01;72.34;94732.53;4973079;28;20035;-76
2023/07/04 22:00:37;;;;;;;8.90;8.00;;;;;;;20.05;72.28;94712.69;4989596;28;20060;-76
2023/07/04 22:03:02;;;;;;;10.50;8.05;;;;;;;20.08;72.22;94733.41;4990679;28;20529;-75
2023/07/04 22:05:28;;;;;;;13.45;8.38;;;;;;;20.02;72.87;94720.97;4977305;28;20113;-76
2023/07/04 22:07:53;;;;;;;9.52;8.32;;;;;;;20.04;72.63;94721.63;4993122;28;20110;-76
2023/07/04 22:10:19;;;;;;;9.38;8.30;;;;;;;20.08;72.82;94716.78;4976317;28;20065;-76
2023/07/04 22:12:44;;;;;;;8.82;7.93;;;;;;;20.02;71.79;94725.44;4993253;28;20041;-76
2023/07/04 22:15:10;;;;;;;8.85;7.90;;;;;;;19.98;70.91;94727.66;4992243;28;20030;-76
2023/07/04 22:17:35;;;;;;;8.75;7.85;;;;;;;20.00;71.61;94724.81;4976196;28;20385;-75
2023/07/04 22:20:03;;;;;;;10.23;8.10;;;;;;;19.97;71.62;94719.91;4992900;28;20022;-76
2023/07/04 22:22:29;;;;;;;10.65;7.88;;;;;;;19.89;71.57;94717.41;4992976;28;20503;-76
2023/07/04 22:24:54;;;;;;;11.70;8.27;;;;;;;19.94;71.74;94728.19;4994082;28;20031;-75
2023/07/04 22:27:20;;;;;;;9.25;8.27;;;;;;;19.90;71.69;94726.97;4976341;28;20038;-75
2023/07/04 22:29:45;;;;;;;11.15;8.02;;;;;;;19.92;71.52;94725.75;4992216;28;20035;-76
2023/07/04 22:32:11;;;;;;;9.43;7.78;;;;;;;19.83;71.34;94738.22;4976677;28;20065;-75
2023/07/04 22:34:36;;;;;;;8.57;7.72;;;;;;;19.86;71.45;94740.50;4994188;28;20053;-75
2023/07/04 22:37:02;;;;;;;8.55;7.68;;;;;;;20.01;71.02;94731.72;4991790;28;20022;-76
2023/07/04 22:39:28;;;;;;;11.43;8.38;;;;;;;20.00;70.71;94738.00;4975990;28;20037;-76
2023/07/04 22:41:54;;;;;;;10.23;8.38;;;;;;;19.88;71.22;94721.84;4972763;28;20101;-75
2023/07/04 22:44:19;;;;;;;9.02;7.93;;;;;;;20.00;70.89;94738.84;4977952;28;20026;-75
2023/07/04 22:46:45;;;;;;;10.27;8.30;;;;;;;20.00;70.90;94738.00;4993523;28;20034;-75
2023/07/04 22:49:10;;;;;;;10.20;8.32;;;;;;;19.89;70.90;94751.66;4991740;28;20038;-75
2023/07/04 22:51:36;;;;;;;10.10;8.27;;;;;;;19.73;71.63;94748.25;4972731;28;20066;-75
2023/07/04 22:54:02;;;;;;;11.57;8.13;;;;;;;19.92;72.24;94751.28;4972986;28;20050;-75
2023/07/04 22:56:28;;;;;;;9.70;8.70;;;;;;;19.93;72.97;94763.47;4965119;28;20030;-75
2023/07/04 22:58:53;;;;;;;10.65;8.23;;;;;;;19.80;73.83;94756.22;4970135;28;20034;-75
2023/07/04 23:01:22;;;;;;;10.00;8.48;;;;;;;19.73;73.86;94761.44;4975715;28;20064;-75
2023/07/04 23:03:47;;;;;;;9.93;8.20;;;;;;;19.74;74.44;94767.50;4992271;28;20049;-75
2023/07/04 23:06:13;;;;;;;9.52;8.27;;;;;;;19.64;73.53;94760.69;4991758;28;20269;-75
2023/07/04 23:08:39;;;;;;;10.63;8.23;;;;;;;19.66;72.55;94762.34;4972358;28;20026;-75
2023/07/04 23:11:04;;;;;;;9.98;8.18;;;;;;;19.59;72.17;94741.97;4984700;28;20392;-75
2023/07/04 23:13:29;;;;;;;12.13;8.43;;;;;;;19.76;71.53;94755.78;4974805;28;20041;-75
2023/07/04 23:16:05;;;;;;;8.32;7.50;;;;;;;19.68;71.41;94752.44;4959277;28;20029;-75
2023/07/04 23:18:30;;;;;;;11.18;8.27;;;;;;;19.70;71.36;94753.91;4972435;28;20154;-75
2023/07/04 23:20:56;;;;;;;8.45;7.50;;;;;;;19.72;70.81;94753.69;4975539;28;20042;-75
2023/07/04 23:23:22;;;;;;;11.00;8.40;;;;;;;19.81;70.07;94761.31;4993102;28;20022;-75
2023/07/04 23:25:47;;;;;;;9.70;8.70;;;;;;;19.69;70.60;94768.06;4975361;28;20025;-75
2023/07/04 23:28:13;;;;;;;9.85;8.13;;;;;;;19.58;70.58;94758.75;4991216;28;20042;-75
2023/07/04 23:30:38;;;;;;;9.70;8.38;;;;;;;19.63;70.54;94753.78;4990805;28;20059;-75